createdAt,value
2023-05-14T00:00:11.254Z,12.30
2023-05-14T00:05:10.268Z,10.05
2023-05-14T00:10:09.458Z,11.45
2023-05-14T00:15:08.950Z,12.85
2023-05-14T00:20:12.188Z,12.05
2023-05-14T00:25:11.241Z,12.15
2023-05-14T00:30:10.641Z,12.88
2023-05-14T00:35:12.502Z,11.85
2023-05-14T00:40:13.075Z,14.57
2023-05-14T00:45:11.870Z,12.80
2023-05-14T00:50:12.240Z,12.75
2023-05-14T00:55:16.409Z,11.82
2023-05-14T01:00:15.750Z,14.65
2023-05-14T01:05:14.755Z,13.68
2023-05-14T01:10:54.983Z,12.82
2023-05-14T01:15:56.711Z,12.00
2023-05-14T01:20:58.569Z,12.90
2023-05-14T01:25:57.310Z,12.10
2023-05-14T01:30:59.174Z,12.93
2023-05-14T01:35:58.641Z,11.00
2023-05-14T01:40:58.571Z,11.73
2023-05-14T01:45:57.428Z,12.32
2023-05-14T01:50:57.204Z,10.05
2023-05-14T01:55:56.174Z,12.52
2023-05-14T02:00:55.006Z,11.60
2023-05-14T02:05:53.831Z,10.40
2023-05-14T02:10:52.740Z,10.60
2023-05-14T02:15:51.818Z,11.85
2023-05-14T02:20:50.584Z,13.20
2023-05-14T02:25:49.371Z,12.73
2023-05-14T02:30:48.365Z,11.68
2023-05-14T02:35:47.128Z,10.30
2023-05-14T02:40:45.891Z,11.63
2023-05-14T02:45:44.726Z,9.80
2023-05-14T02:50:43.968Z,10.65
2023-05-14T02:55:42.969Z,10.63
2023-05-14T03:00:41.763Z,10.30
2023-05-14T03:05:41.054Z,9.85
2023-05-14T03:10:39.796Z,10.65
2023-05-14T03:15:38.686Z,11.65
2023-05-14T03:20:37.964Z,10.30
2023-05-14T03:25:37.967Z,9.88
2023-05-14T03:30:36.943Z,11.32
2023-05-14T03:35:35.920Z,9.00
2023-05-14T03:40:34.874Z,10.75
2023-05-14T03:45:34.087Z,10.02
2023-05-14T03:50:33.073Z,10.15
2023-05-14T03:55:31.904Z,9.63
2023-05-14T04:00:30.952Z,10.73
2023-05-14T04:05:29.692Z,10.65
2023-05-14T04:10:32.269Z,9.77
2023-05-14T04:15:32.312Z,11.10
2023-05-14T04:20:31.200Z,9.48
2023-05-14T04:25:30.521Z,10.27
2023-05-14T04:30:29.758Z,9.35
2023-05-14T04:35:28.835Z,10.45
2023-05-14T04:40:27.835Z,10.05
2023-05-14T04:45:26.845Z,10.07
2023-05-14T04:50:26.125Z,10.55
2023-05-14T04:55:25.044Z,11.48
2023-05-14T05:00:24.187Z,11.82
2023-05-14T05:05:23.858Z,10.45
2023-05-14T05:10:22.988Z,10.50
2023-05-14T05:15:23.291Z,10.82
2023-05-14T05:20:25.122Z,8.63
2023-05-14T05:25:24.211Z,8.98
2023-05-14T05:30:23.258Z,10.07
2023-05-14T05:35:22.202Z,9.00
2023-05-14T05:40:21.114Z,8.25
2023-05-14T05:45:20.004Z,9.30
2023-05-14T05:50:19.956Z,11.38
2023-05-14T05:55:19.235Z,11.05
2023-05-14T06:00:18.988Z,10.25
2023-05-14T06:05:18.896Z,9.27
2023-05-14T06:10:17.934Z,9.68
2023-05-14T06:15:20.116Z,7.88
2023-05-14T06:20:19.339Z,5.85
2023-05-14T06:25:18.553Z,6.50
2023-05-14T06:30:17.375Z,7.63
2023-05-14T06:35:16.225Z,7.85
2023-05-14T06:40:18.083Z,9.90
2023-05-14T06:45:16.967Z,6.35
2023-05-14T06:50:15.798Z,6.65
2023-05-14T06:55:14.673Z,7.32
2023-05-14T07:00:14.607Z,6.03
2023-05-14T07:05:13.556Z,6.43
2023-05-14T07:10:12.797Z,6.90
2023-05-14T07:15:12.321Z,7.80
2023-05-14T07:20:11.629Z,5.90
2023-05-14T07:25:10.567Z,7.38
2023-05-14T07:30:09.627Z,6.88
2023-05-14T07:35:09.106Z,5.72
2023-05-14T07:40:08.498Z,6.03
2023-05-14T07:45:08.890Z,8.13
2023-05-14T07:50:10.695Z,5.35
2023-05-14T07:55:09.893Z,7.10
2023-05-14T08:00:09.273Z,5.78
2023-05-14T08:05:14.254Z,6.85
2023-05-14T08:10:13.048Z,5.93
2023-05-14T08:15:12.435Z,8.10
2023-05-14T08:20:12.061Z,5.53
2023-05-14T08:25:11.084Z,7.80
2023-05-14T08:30:10.322Z,6.43
2023-05-14T08:35:09.372Z,6.50
2023-05-14T08:40:08.835Z,7.95
2023-05-14T08:45:16.953Z,7.70
2023-05-14T08:50:22.701Z,6.70
2023-05-14T08:55:22.597Z,5.47
2023-05-14T09:00:21.701Z,6.68
2023-05-14T09:05:22.147Z,7.57
2023-05-14T09:10:21.559Z,4.65
2023-05-14T09:15:20.552Z,7.03
2023-05-14T09:20:19.848Z,4.82
2023-05-14T09:25:18.601Z,5.22
2023-05-14T09:30:17.760Z,4.68
2023-05-14T09:35:21.749Z,5.63
2023-05-14T09:40:23.653Z,5.75
2023-05-14T09:45:23.296Z,6.25
2023-05-14T09:50:22.303Z,5.85
2023-05-14T09:55:22.142Z,5.25
2023-05-14T10:00:23.219Z,4.65
2023-05-14T10:05:23.640Z,4.78
2023-05-14T10:10:26.872Z,5.10
2023-05-14T10:15:43.638Z,6.70
2023-05-14T10:20:43.229Z,5.78
2023-05-14T10:25:42.528Z,5.25
2023-05-14T10:30:46.290Z,6.30
2023-05-14T10:36:00.511Z,5.03
2023-05-14T10:41:04.404Z,5.55
2023-05-14T10:46:04.317Z,5.80
2023-05-14T10:51:03.312Z,4.65
2023-05-14T10:56:09.288Z,5.95
2023-05-14T11:01:09.233Z,5.53
2023-05-14T11:06:09.356Z,7.40
2023-05-14T11:11:09.694Z,4.57
2023-05-14T11:16:21.547Z,4.57
2023-05-14T11:21:21.805Z,4.45
2023-05-14T11:26:21.725Z,4.80
2023-05-14T11:31:22.359Z,4.43
2023-05-14T11:36:22.020Z,3.58
2023-05-14T11:41:22.879Z,3.58
2023-05-14T11:46:22.519Z,3.90
2023-05-14T11:51:21.597Z,3.33
2023-05-14T11:56:24.641Z,3.30
2023-05-14T12:01:23.768Z,3.40
2023-05-14T12:06:31.552Z,3.55
2023-05-14T12:11:36.055Z,3.67
2023-05-14T12:16:36.815Z,3.85
2023-05-14T12:21:37.681Z,3.88
2023-05-14T12:26:38.715Z,3.47
2023-05-14T12:31:44.788Z,2.60
2023-05-14T12:36:44.350Z,2.80
2023-05-14T12:41:43.104Z,3.13
2023-05-14T12:46:41.970Z,3.67
2023-05-14T12:51:41.033Z,2.88
2023-05-14T12:56:39.882Z,3.25
2023-05-14T13:01:38.832Z,4.68
2023-05-14T13:06:37.841Z,4.47
2023-05-14T13:11:36.596Z,3.35
2023-05-14T13:16:35.693Z,5.75
2023-05-14T13:21:34.603Z,4.10
2023-05-14T13:26:33.639Z,4.43
2023-05-14T13:31:32.563Z,4.53
2023-05-14T13:36:32.317Z,4.15
2023-05-14T13:41:34.936Z,4.70
2023-05-14T13:46:33.848Z,3.83
2023-05-14T13:51:32.731Z,3.80
2023-05-14T13:56:31.632Z,4.40
2023-05-14T14:01:33.400Z,3.72
2023-05-14T14:06:33.269Z,3.58
2023-05-14T14:11:32.140Z,4.88
2023-05-14T14:16:31.179Z,5.72
2023-05-14T14:21:30.035Z,3.97
2023-05-14T14:26:29.289Z,5.35
2023-05-14T14:31:28.204Z,4.05
2023-05-14T14:36:27.000Z,3.72
2023-05-14T14:41:26.662Z,3.97
2023-05-14T14:46:25.499Z,3.40
2023-05-14T14:51:24.543Z,4.30
2023-05-14T14:56:23.667Z,4.40
2023-05-14T15:01:22.966Z,3.97
2023-05-14T15:06:21.758Z,3.72
2023-05-14T15:11:20.929Z,3.53
2023-05-14T15:16:19.755Z,4.32
2023-05-14T15:21:18.591Z,4.05
2023-05-14T15:26:17.388Z,5.50
2023-05-14T15:31:16.504Z,3.72
2023-05-14T15:36:15.390Z,4.13
2023-05-14T15:41:14.387Z,4.30
2023-05-14T15:46:13.279Z,3.83
2023-05-14T15:51:12.730Z,4.82
2023-05-14T15:56:11.656Z,3.78
2023-05-14T16:01:10.519Z,4.85
2023-05-14T16:06:09.999Z,7.47
2023-05-14T16:11:08.825Z,2.60
2023-05-14T16:16:08.348Z,2.67
2023-05-14T16:21:07.180Z,3.97
2023-05-14T16:26:06.459Z,3.65
2023-05-14T16:31:05.253Z,4.10
2023-05-14T16:36:04.126Z,2.90
2023-05-14T16:41:03.308Z,4.20
2023-05-14T16:46:04.806Z,3.95
2023-05-14T16:51:06.863Z,3.00
2023-05-14T16:56:06.718Z,3.08
2023-05-14T17:01:08.694Z,3.03
2023-05-14T17:06:10.092Z,5.18
2023-05-14T17:11:09.245Z,3.10
2023-05-14T17:16:08.240Z,3.95
2023-05-14T17:21:07.565Z,5.47
2023-05-14T17:26:06.505Z,4.95
2023-05-14T17:31:05.454Z,3.88
2023-05-14T17:36:04.440Z,5.13
2023-05-14T17:41:03.200Z,5.65
2023-05-14T17:46:02.162Z,7.53
2023-05-14T17:51:01.180Z,5.50
2023-05-14T17:56:00.152Z,6.05
2023-05-14T18:00:59.093Z,4.90
2023-05-14T18:05:58.798Z,7.30
2023-05-14T18:10:58.600Z,6.40
2023-05-14T18:15:57.625Z,6.72
2023-05-14T18:20:56.596Z,6.80
2023-05-14T18:25:55.787Z,7.88
2023-05-14T18:30:54.605Z,7.50
2023-05-14T18:35:53.697Z,8.75
2023-05-14T18:40:52.567Z,7.55
2023-05-14T18:45:54.493Z,7.43
2023-05-14T18:50:57.652Z,7.90
2023-05-14T18:55:56.563Z,4.80
2023-05-14T19:00:59.073Z,3.55
2023-05-14T19:05:58.176Z,4.00
2023-05-14T19:10:56.946Z,4.03
2023-05-14T19:15:55.996Z,5.22
2023-05-14T19:20:56.628Z,3.03
2023-05-14T19:25:55.568Z,4.35
2023-05-14T19:30:54.500Z,3.85
2023-05-14T19:35:53.479Z,3.28
2023-05-14T19:40:56.876Z,3.95
2023-05-14T19:45:55.736Z,3.28
2023-05-14T19:50:54.515Z,4.50
2023-05-14T19:55:53.252Z,4.15
2023-05-14T20:00:53.341Z,4.35
2023-05-14T20:05:53.395Z,3.40
2023-05-14T20:10:52.366Z,3.30
2023-05-14T20:15:51.406Z,3.58
2023-05-14T20:20:50.200Z,3.20
2023-05-14T20:25:49.009Z,3.95
2023-05-14T20:30:47.833Z,3.00
2023-05-14T20:35:46.623Z,3.60
2023-05-14T20:40:45.585Z,3.90
2023-05-14T20:45:44.352Z,3.95
2023-05-14T20:50:43.532Z,4.80
2023-05-14T20:55:42.428Z,3.65
2023-05-14T21:00:41.279Z,4.47
2023-05-14T21:05:41.560Z,11.57
2023-05-14T21:10:40.412Z,6.15
2023-05-14T21:15:39.371Z,4.63
2023-05-14T21:20:38.254Z,4.25
2023-05-14T21:25:37.043Z,3.70
2023-05-14T21:30:35.763Z,3.95
2023-05-14T21:35:34.538Z,3.97
2023-05-14T21:40:33.260Z,4.07
2023-05-14T21:45:32.260Z,5.45
2023-05-14T21:50:31.247Z,5.35
2023-05-14T21:55:30.059Z,8.80
2023-05-14T22:00:28.962Z,4.78
2023-05-14T22:05:28.076Z,5.45
2023-05-14T22:10:27.012Z,5.05
2023-05-14T22:15:26.211Z,3.50
2023-05-14T22:20:25.334Z,4.38
2023-05-14T22:25:24.679Z,4.47
2023-05-14T22:30:23.837Z,3.25
2023-05-14T22:35:22.815Z,3.75
2023-05-14T22:40:21.855Z,3.85
2023-05-14T22:45:20.624Z,4.15
2023-05-14T22:50:19.324Z,4.38
2023-05-14T22:55:18.171Z,4.18
2023-05-14T23:00:17.191Z,2.78
2023-05-14T23:05:15.942Z,4.13
2023-05-14T23:10:14.825Z,2.95
2023-05-14T23:15:13.754Z,3.25
2023-05-14T23:20:13.001Z,3.28
2023-05-14T23:25:11.769Z,3.75
2023-05-14T23:30:11.006Z,3.38
2023-05-14T23:35:10.395Z,2.90
2023-05-14T23:40:09.866Z,4.97
2023-05-14T23:45:09.041Z,4.93
2023-05-14T23:50:08.506Z,3.47
2023-05-14T23:55:07.671Z,4.90
